Time;durP1;ratioP1;P1;durP2;ratioP2;P2;SDS_P1;SDS_P2;PMS_P1;PMS_P2;Temp;Humidity;BMP_temperature;BMP_pressure;BME280_temperature;BME280_humidity;BME280_pressure;Samples;Min_cycle;Max_cycle;Signal;HPM_P1;HPM_P2
2021/05/02 00:03:43;;;;;;;0.47;0.30;;;7.70;99.90;;;;;;21075702;28;20055;-44
2021/05/02 00:13:44;;;;;;;0.40;0.10;;;7.70;99.90;;;;;;21076914;28;20090;-45
2021/05/02 00:23:47;;;;;;;2.40;0.68;;;7.70;99.90;;;;;;21074528;28;20036;-44
2021/05/02 00:33:49;;;;;;;0.45;0.25;;;7.70;99.90;;;;;;21074034;28;20050;-45
2021/05/02 00:44:01;;;;;;;1.35;0.60;;;7.60;99.90;;;;;;21073645;28;20050;-46
2021/05/02 00:54:07;;;;;;;0.80;0.60;;;7.60;99.90;;;;;;21072985;28;20546;-44
2021/05/02 01:04:11;;;;;;;0.35;0.15;;;7.50;99.90;;;;;;21072863;28;20504;-50
2021/05/02 01:14:22;;;;;;;1.95;0.40;;;7.40;99.90;;;;;;21086765;28;20121;-44
2021/05/02 01:24:26;;;;;;;0.93;0.30;;;7.60;99.90;;;;;;21089018;28;20036;-44
2021/05/02 01:34:29;;;;;;;0.20;0.10;;;7.50;99.90;;;;;;21087938;28;20089;-47
2021/05/02 01:44:31;;;;;;;0.20;0.20;;;7.70;99.90;;;;;;21087229;28;20054;-48
2021/05/02 01:54:35;;;;;;;0.93;0.17;;;7.60;99.90;;;;;;21086863;28;20081;-44
2021/05/02 02:04:41;;;;;;;0.25;0.20;;;7.60;99.90;;;;;;21085676;28;20061;-44
2021/05/02 02:14:43;;;;;;;0.00;0.00;;;7.40;99.90;;;;;;21084986;28;20531;-44
2021/05/02 02:24:57;;;;;;;0.57;0.10;;;7.60;99.90;;;;;;21083537;28;20040;-44
2021/05/02 02:34:59;;;;;;;0.00;0.00;;;7.50;99.90;;;;;;21083230;28;20081;-47
2021/05/02 02:45:08;;;;;;;0.00;0.00;;;7.50;99.90;;;;;;21082399;28;20077;-45
2021/05/02 02:55:12;;;;;;;0.57;0.10;;;7.80;99.90;;;;;;21081553;28;20044;-45
2021/05/02 03:05:15;;;;;;;0.47;0.20;;;7.60;99.90;;;;;;21081067;28;20060;-47
2021/05/02 03:15:17;;;;;;;0.20;0.10;;;7.60;99.90;;;;;;21080757;28;20444;-44
2021/05/02 03:25:27;;;;;;;23.27;1.55;;;7.60;99.90;;;;;;21079125;28;20032;-45
2021/05/02 03:35:34;;;;;;;1.25;0.10;;;7.50;99.90;;;;;;21076744;28;20481;-45
2021/05/02 03:45:35;;;;;;;0.00;0.00;;;7.60;99.90;;;;;;21077786;28;20035;-47
2021/05/02 03:55:47;;;;;;;0.20;0.10;;;7.60;99.90;;;;;;21076740;28;20451;-45
2021/05/02 04:05:49;;;;;;;0.88;0.40;;;7.50;99.90;;;;;;21076206;28;20040;-50
2021/05/02 04:15:51;;;;;;;1.00;0.50;;;7.60;99.90;;;;;;21075383;28;20032;-44
2021/05/02 04:25:52;;;;;;;1.88;0.38;;;7.50;99.90;;;;;;21074733;28;20106;-44
2021/05/02 04:35:54;;;;;;;0.40;0.10;;;7.40;99.90;;;;;;21073575;28;20040;-45
2021/05/02 04:45:56;;;;;;;0.10;0.10;;;7.40;99.90;;;;;;21073265;28;20032;-44
2021/05/02 04:55:58;;;;;;;11.88;1.40;;;7.50;99.90;;;;;;21073009;28;20052;-44
2021/05/02 05:06:00;;;;;;;22.30;2.58;;;7.60;99.90;;;;;;21072874;28;20105;-44
2021/05/02 05:16:02;;;;;;;13.30;2.97;;;7.60;99.90;;;;;;21072298;28;20031;-46
2021/05/02 05:26:04;;;;;;;4.97;1.88;;;7.40;99.90;;;;;;21071919;28;20028;-44
2021/05/02 05:36:06;;;;;;;92.22;4.80;;;7.30;99.90;;;;;;21071679;28;20044;-45
2021/05/02 05:46:13;;;;;;;111.25;4.57;;;7.40;99.90;;;;;;21071162;28;20044;-44
2021/05/02 05:56:15;;;;;;;37.67;3.53;;;7.60;99.90;;;;;;21077210;28;20040;-45
2021/05/02 06:06:16;;;;;;;1.35;1.05;;;7.80;99.90;;;;;;21085609;28;20069;-44
2021/05/02 06:16:18;;;;;;;2.55;1.80;;;8.00;99.90;;;;;;21085062;28;20036;-44
2021/05/02 06:26:21;;;;;;;2.63;1.83;;;8.20;99.90;;;;;;21084536;28;20036;-45
2021/05/02 06:36:22;;;;;;;55.65;2.88;;;8.30;99.90;;;;;;21083544;28;20409;-44
2021/05/02 06:46:28;;;;;;;199.88;5.55;;;8.30;99.90;;;;;;21084167;28;20036;-44
2021/05/02 06:56:29;;;;;;;125.18;4.90;;;8.20;99.90;;;;;;21082535;28;20048;-46
2021/05/02 07:06:33;;;;;;;229.65;7.20;;;8.00;99.90;;;;;;21081646;28;20040;-46
2021/05/02 07:16:35;;;;;;;59.72;2.05;;;7.70;99.90;;;;;;21080398;28;20507;-45
2021/05/02 07:26:43;;;;;;;1.95;0.20;;;7.80;99.90;;;;;;21079178;28;20089;-48
2021/05/02 07:36:45;;;;;;;0.30;0.10;;;7.90;99.90;;;;;;21078368;28;20085;-44
2021/05/02 07:46:47;;;;;;;0.10;0.00;;;7.40;99.90;;;;;;21077648;28;20031;-44
2021/05/02 07:56:49;;;;;;;0.00;0.00;;;6.90;99.90;;;;;;21077042;28;20113;-45
2021/05/02 08:06:51;;;;;;;0.00;0.00;;;6.90;99.90;;;;;;21076204;28;20040;-45
2021/05/02 08:16:53;;;;;;;1.40;0.10;;;7.10;99.90;;;;;;21075064;28;20040;-45
2021/05/02 08:26:56;;;;;;;0.00;0.00;;;7.40;99.90;;;;;;21074716;28;20094;-45
2021/05/02 08:36:58;;;;;;;0.13;0.00;;;8.00;99.90;;;;;;21074934;28;20036;-48
2021/05/02 08:47:00;;;;;;;0.00;0.00;;;8.30;99.90;;;;;;21074578;28;20180;-44
2021/05/02 08:57:03;;;;;;;0.03;0.00;;;8.60;99.90;;;;;;21073300;28;20063;-48
2021/05/02 09:07:14;;;;;;;0.38;0.00;;;8.60;99.90;;;;;;21073667;28;20044;-49
2021/05/02 09:17:28;;;;;;;0.00;0.00;;;8.70;99.90;;;;;;21073068;28;20032;-44
2021/05/02 09:27:30;;;;;;;0.00;0.00;;;8.40;99.90;;;;;;21073665;28;20478;-44
2021/05/02 09:37:34;;;;;;;0.57;0.00;;;8.60;99.90;;;;;;21089918;28;20040;-46
2021/05/02 09:47:46;;;;;;;0.10;0.00;;;8.60;99.90;;;;;;21090013;28;20081;-45
2021/05/02 09:58:00;;;;;;;0.00;0.00;;;9.10;99.90;;;;;;21088006;28;20036;-45
2021/05/02 10:08:02;;;;;;;0.10;0.00;;;10.50;99.90;;;;;;21087223;28;20040;-49
2021/05/02 10:18:04;;;;;;;0.00;0.00;;;10.10;99.90;;;;;;21085184;28;20093;-46
2021/05/02 10:28:06;;;;;;;0.00;0.00;;;10.50;99.90;;;;;;21084265;28;20086;-46
2021/05/02 10:38:10;;;;;;;0.32;0.00;;;10.60;99.90;;;;;;21082866;28;20039;-50
2021/05/02 10:48:14;;;;;;;0.47;0.00;;;10.50;99.90;;;;;;21082591;28;20040;-46
2021/05/02 10:58:24;;;;;;;0.00;0.00;;;10.30;99.90;;;;;;21079456;28;20052;-46
2021/05/02 11:08:46;;;;;;;0.00;0.00;;;10.80;99.90;;;;;;21080696;28;20464;-49
2021/05/02 11:18:51;;;;;;;0.00;0.00;;;11.30;99.90;;;;;;21080159;28;20551;-45
2021/05/02 11:29:11;;;;;;;0.00;0.00;;;11.40;99.70;;;;;;21079844;28;20032;-46
2021/05/02 11:39:31;;;;;;;0.00;0.00;;;11.70;99.90;;;;;;21078851;28;20401;-46
2021/05/02 11:49:41;;;;;;;0.93;0.00;;;14.10;98.10;;;;;;21078551;28;20172;-46
2021/05/02 11:59:52;;;;;;;0.15;0.00;;;14.20;97.90;;;;;;21076958;28;20044;-45
2021/05/02 12:09:54;;;;;;;0.10;0.00;;;12.70;97.00;;;;;;21076124;28;20047;-46
2021/05/02 12:19:56;;;;;;;1.55;0.00;;;11.30;99.90;;;;;;21075278;28;20035;-47
2021/05/02 12:29:58;;;;;;;0.00;0.00;;;12.50;99.90;;;;;;21074161;28;20481;-45
2021/05/02 12:40:06;;;;;;;0.10;0.00;;;12.70;99.90;;;;;;21073926;28;20040;-46
2021/05/02 12:50:10;;;;;;;0.20;0.00;;;13.20;99.90;;;;;;21073304;28;20100;-46
2021/05/02 13:00:13;;;;;;;0.30;0.00;;;15.20;97.80;;;;;;21072738;28;20112;-45
2021/05/02 13:10:18;;;;;;;0.43;0.00;;;14.40;97.10;;;;;;21098883;28;20097;-46
2021/05/02 13:20:20;;;;;;;0.13;0.05;;;14.20;98.70;;;;;;21100247;28;20035;-46
2021/05/02 13:30:28;;;;;;;0.40;0.20;;;13.90;99.90;;;;;;21099917;28;20055;-46
2021/05/02 13:40:31;;;;;;;0.38;0.20;;;13.20;99.90;;;;;;21099631;28;20435;-46
2021/05/02 13:50:33;;;;;;;0.68;0.20;;;13.10;99.90;;;;;;21100421;28;20066;-50
2021/05/02 14:00:35;;;;;;;0.13;0.10;;;12.80;99.90;;;;;;21098860;28;20048;-46
2021/05/02 14:10:37;;;;;;;0.10;0.10;;;12.90;99.90;;;;;;21098354;28;20436;-47
2021/05/02 14:20:43;;;;;;;0.30;0.20;;;13.40;99.90;;;;;;21084506;28;20032;-46
2021/05/02 14:30:45;;;;;;;0.55;0.20;;;12.90;99.90;;;;;;21083982;28;20032;-46
2021/05/02 14:40:47;;;;;;;0.30;0.20;;;12.70;99.90;;;;;;21082788;28;20097;-47
2021/05/02 14:50:49;;;;;;;0.52;0.40;;;13.00;99.90;;;;;;21082477;28;20040;-46
2021/05/02 15:00:51;;;;;;;0.38;0.32;;;13.20;99.90;;;;;;21081669;28;20446;-46
2021/05/02 15:10:52;;;;;;;0.60;0.40;;;13.10;99.90;;;;;;21080606;28;20424;-45
2021/05/02 15:20:55;;;;;;;0.60;0.40;;;12.50;99.90;;;;;;21079789;28;20386;-50
2021/05/02 15:30:57;;;;;;;0.35;0.30;;;11.80;99.90;;;;;;21077985;28;20035;-45
2021/05/02 15:40:59;;;;;;;0.60;0.50;;;11.40;99.90;;;;;;21080420;28;20078;-45
2021/05/02 15:51:01;;;;;;;0.10;0.10;;;11.20;99.90;;;;;;21077622;28;20065;-50
2021/05/02 16:01:04;;;;;;;0.90;0.40;;;10.20;99.90;;;;;;21077124;28;20070;-48
2021/05/02 16:11:06;;;;;;;0.10;0.10;;;9.40;99.90;;;;;;21075851;28;20367;-44
2021/05/02 16:21:08;;;;;;;1.73;0.03;;;8.40;99.90;;;;;;21075707;28;20069;-45
2021/05/02 16:31:10;;;;;;;3.13;0.20;;;7.60;99.90;;;;;;21074435;28;20089;-45
2021/05/02 16:41:11;;;;;;;0.47;0.00;;;7.40;99.90;;;;;;21073504;28;20385;-45
2021/05/02 16:51:14;;;;;;;0.95;0.10;;;7.30;99.90;;;;;;21072225;28;20078;-45
2021/05/02 17:01:16;;;;;;;0.10;0.00;;;7.20;99.90;;;;;;21072914;28;20056;-51
2021/05/02 17:11:18;;;;;;;0.03;0.00;;;7.20;99.90;;;;;;21071705;28;20070;-45
2021/05/02 17:21:24;;;;;;;0.47;0.08;;;7.20;99.90;;;;;;21072416;28;20066;-45
2021/05/02 17:31:27;;;;;;;0.10;0.10;;;7.00;99.90;;;;;;21070682;28;20036;-48
2021/05/02 17:41:28;;;;;;;0.10;0.10;;;7.10;99.90;;;;;;21071811;28;20044;-45
2021/05/02 17:51:32;;;;;;;0.22;0.00;;;7.10;99.90;;;;;;21076811;28;20044;-45
2021/05/02 18:01:34;;;;;;;0.25;0.10;;;7.00;99.90;;;;;;21085861;28;20048;-46
2021/05/02 18:11:36;;;;;;;0.10;0.10;;;6.90;99.90;;;;;;21085901;28;20044;-45
2021/05/02 18:21:39;;;;;;;0.57;0.10;;;6.80;99.90;;;;;;21085104;28;20101;-45
2021/05/02 18:31:41;;;;;;;0.52;0.20;;;6.60;99.90;;;;;;21084032;28;20032;-45
2021/05/02 18:41:45;;;;;;;0.20;0.10;;;6.50;99.90;;;;;;21083291;28;20093;-48
2021/05/02 18:51:47;;;;;;;1.15;0.10;;;6.30;99.90;;;;;;21082333;28;20539;-45
2021/05/02 19:01:51;;;;;;;0.13;0.10;;;6.20;99.90;;;;;;21081236;28;20490;-45
2021/05/02 19:11:55;;;;;;;0.25;0.10;;;5.90;99.90;;;;;;21082132;28;20058;-49
2021/05/02 19:21:57;;;;;;;0.22;0.10;;;5.40;99.90;;;;;;21080299;28;20094;-45
2021/05/02 19:31:59;;;;;;;0.00;0.00;;;5.10;99.90;;;;;;21079861;28;20031;-45
2021/05/02 19:42:01;;;;;;;0.05;0.00;;;5.10;99.90;;;;;;21079438;28;20455;-49
2021/05/02 19:52:03;;;;;;;0.10;0.00;;;5.30;99.90;;;;;;21077838;28;20485;-47
2021/05/02 20:02:06;;;;;;;0.20;0.10;;;5.50;99.90;;;;;;21077345;28;20466;-44
2021/05/02 20:12:08;;;;;;;1.25;0.10;;;5.70;99.90;;;;;;21075413;28;20040;-45
2021/05/02 20:22:11;;;;;;;1.13;0.00;;;5.70;99.90;;;;;;21075573;28;20348;-45
2021/05/02 20:32:13;;;;;;;0.30;0.10;;;5.80;99.90;;;;;;21074422;28;20036;-46
2021/05/02 20:42:14;;;;;;;0.10;0.00;;;5.90;99.90;;;;;;21074204;28;20032;-45
2021/05/02 20:52:16;;;;;;;0.00;0.00;;;6.00;99.90;;;;;;21072289;28;20036;-45
2021/05/02 21:02:25;;;;;;;0.45;0.10;;;5.90;99.90;;;;;;21072805;28;20439;-45
2021/05/02 21:12:28;;;;;;;0.10;0.10;;;5.90;99.90;;;;;;21072713;28;20086;-45
2021/05/02 21:22:29;;;;;;;0.00;0.00;;;6.10;99.90;;;;;;21072207;28;20028;-49
2021/05/02 21:32:31;;;;;;;0.28;0.17;;;6.10;99.90;;;;;;21089090;28;20040;-45
2021/05/02 21:42:33;;;;;;;0.10;0.10;;;5.90;99.90;;;;;;21088039;28;20074;-44
2021/05/02 21:52:36;;;;;;;0.93;0.20;;;5.20;99.90;;;;;;21087176;28;20092;-44
2021/05/02 22:02:38;;;;;;;0.47;0.30;;;4.80;99.90;;;;;;21086341;28;20048;-45
2021/05/02 22:12:39;;;;;;;0.60;0.30;;;4.60;99.90;;;;;;21085678;28;20043;-47
2021/05/02 22:22:41;;;;;;;1.05;0.30;;;4.20;99.90;;;;;;21085265;28;20040;-44
2021/05/02 22:32:43;;;;;;;0.60;0.32;;;3.90;99.90;;;;;;21084029;28;20032;-45
2021/05/02 22:42:47;;;;;;;0.68;0.50;;;3.90;99.90;;;;;;21082794;28;20156;-45
2021/05/02 22:52:49;;;;;;;0.63;0.30;;;3.80;99.90;;;;;;21082694;28;20032;-45
2021/05/02 23:03:05;;;;;;;1.40;0.50;;;3.80;99.90;;;;;;21081658;28;20036;-50
2021/05/02 23:13:08;;;;;;;0.47;0.30;;;3.90;99.90;;;;;;21081238;28;20043;-45
2021/05/02 23:23:10;;;;;;;1.02;0.50;;;3.90;99.90;;;;;;21080918;28;20366;-45
2021/05/02 23:33:11;;;;;;;0.93;0.43;;;3.90;99.90;;;;;;21080578;28;20055;-45
2021/05/02 23:43:13;;;;;;;0.65;0.43;;;3.90;99.90;;;;;;21078794;28;20058;-45
2021/05/02 23:53:18;;;;;;;0.52;0.30;;;4.00;99.90;;;;;;21076797;28;20066;-45
